createdAt,value
2022-09-02T05:52:47.206Z,19.67
2022-09-02T05:55:15.966Z,18.92
2022-09-02T05:57:46.555Z,19.57
2022-09-02T06:00:20.789Z,20.17
2022-09-02T06:03:02.656Z,19.78
2022-09-02T06:05:38.456Z,19.89
2022-09-02T06:08:06.711Z,19.76
2022-09-02T06:10:42.217Z,19.56
2022-09-02T06:13:11.649Z,20.09
2022-09-02T06:15:46.195Z,20.32
2022-09-02T06:18:14.454Z,20.55
2022-09-02T06:20:45.856Z,20.84
2022-09-02T06:23:15.114Z,21.09
2022-09-02T06:25:44.830Z,21.16
2022-09-02T06:28:14.295Z,20.52
2022-09-02T06:30:44.755Z,20.88
2022-09-02T06:33:12.491Z,20.48
2022-09-02T06:35:42.619Z,21.13
2022-09-02T06:38:11.921Z,21.12
2022-09-02T06:40:52.150Z,21.56
2022-09-02T06:43:21.755Z,21.10
2022-09-02T06:45:50.475Z,20.99
2022-09-02T06:48:18.046Z,21.31
2022-09-02T06:50:46.644Z,20.97
2022-09-02T06:53:14.933Z,21.11
2022-09-02T06:55:44.479Z,21.57
2022-09-02T06:58:14.086Z,21.59
2022-09-02T07:00:42.647Z,21.15
2022-09-02T07:03:50.194Z,21.26
2022-09-02T07:06:18.152Z,21.12
2022-09-02T07:08:46.020Z,21.44
2022-09-02T07:11:22.853Z,21.95
2022-09-02T07:13:51.568Z,21.57
2022-09-02T07:16:26.826Z,21.78
2022-09-02T07:18:58.589Z,21.32
2022-09-02T07:21:26.352Z,20.84
2022-09-02T07:23:54.012Z,21.15
2022-09-02T07:26:22.631Z,21.04
2022-09-02T07:28:51.115Z,21.55
2022-09-02T07:31:19.008Z,21.95
2022-09-02T07:33:49.912Z,21.92
2022-09-02T07:36:21.634Z,21.77
2022-09-02T07:38:49.698Z,21.25
2022-09-02T07:41:17.580Z,22.09
2022-09-02T07:43:50.987Z,22.05
2022-09-02T07:46:20.317Z,22.44
2022-09-02T07:48:50.225Z,21.63
2022-09-02T07:51:19.232Z,22.15
2022-09-02T07:53:48.143Z,22.43
2022-09-02T07:56:15.572Z,21.93
2022-09-02T07:58:44.368Z,21.79
2022-09-02T08:01:13.327Z,21.57
2022-09-02T08:03:44.345Z,21.71
2022-09-02T08:06:14.029Z,21.72
2022-09-02T08:08:42.826Z,22.29
2022-09-02T08:11:10.540Z,22.46
2022-09-02T08:13:38.059Z,23.67
2022-09-02T08:16:06.302Z,23.65
2022-09-02T08:18:34.726Z,23.58
2022-09-02T08:21:02.599Z,24.14
2022-09-02T08:23:37.066Z,23.75
2022-09-02T08:26:05.679Z,24.05
2022-09-02T08:28:33.557Z,23.96
2022-09-02T08:31:05.152Z,24.38
2022-09-02T08:33:32.918Z,24.74
2022-09-02T08:36:11.976Z,24.76
2022-09-02T08:38:39.850Z,24.03
2022-09-02T08:41:28.691Z,23.77
2022-09-02T08:43:59.157Z,24.17
2022-09-02T08:46:28.848Z,24.34
2022-09-02T08:49:04.235Z,23.96
2022-09-02T08:51:37.704Z,24.80
2022-09-02T08:54:14.587Z,24.35
2022-09-02T08:56:42.341Z,23.52
2022-09-02T08:59:10.496Z,23.59
2022-09-02T09:01:56.514Z,23.61
2022-09-02T09:04:49.954Z,23.89
2022-09-02T09:07:27.462Z,24.45
2022-09-02T09:10:14.024Z,23.91
2022-09-02T09:13:04.087Z,24.00
2022-09-02T09:15:46.371Z,24.21
2022-09-02T09:18:17.631Z,23.63
2022-09-02T09:20:46.178Z,23.83
2022-09-02T09:23:34.452Z,24.38
2022-09-02T09:26:05.898Z,24.13
2022-09-02T09:28:40.946Z,24.83
2022-09-02T09:31:11.043Z,24.82
2022-09-02T09:33:38.554Z,24.77
2022-09-02T09:36:06.147Z,25.69
2022-09-02T09:38:36.705Z,25.66
2022-09-02T09:41:20.595Z,25.48
2022-09-02T09:43:48.394Z,24.78
2022-09-02T09:46:27.847Z,25.62
2022-09-02T09:48:55.839Z,25.63
2022-09-02T09:51:23.376Z,25.87
2022-09-02T09:53:51.170Z,25.73
2022-09-02T09:56:26.577Z,26.34
2022-09-02T09:58:54.278Z,26.12
2022-09-02T10:01:35.146Z,25.01
2022-09-02T10:04:42.178Z,26.06
2022-09-02T10:06:59.718Z,25.98
2022-09-02T10:09:32.698Z,26.13
2022-09-02T10:12:11.880Z,26.38
2022-09-02T10:14:43.488Z,26.40
2022-09-02T10:17:35.428Z,26.13
2022-09-02T10:20:09.178Z,26.81
2022-09-02T10:22:59.574Z,26.11
2022-09-02T10:25:47.003Z,25.89
2022-09-02T10:28:32.960Z,25.75
2022-09-02T10:31:35.002Z,25.59
2022-09-02T10:34:24.529Z,25.42
2022-09-02T10:37:18.487Z,25.25
2022-09-02T10:39:55.698Z,25.42
2022-09-02T10:42:39.678Z,25.11
2022-09-02T10:45:37.195Z,25.55
2022-09-02T10:48:23.779Z,25.94
2022-09-02T10:51:03.476Z,25.39
2022-09-02T10:53:59.781Z,26.13
2022-09-02T10:56:41.554Z,26.02
2022-09-02T10:59:24.552Z,25.41
2022-09-02T11:01:55.353Z,26.04
2022-09-02T11:04:39.404Z,26.09
2022-09-02T11:07:10.863Z,25.93
2022-09-02T11:09:46.264Z,26.13
2022-09-02T11:12:18.475Z,25.60
2022-09-02T11:14:56.191Z,25.19
2022-09-02T11:17:45.625Z,25.65
2022-09-02T11:20:21.338Z,26.11
2022-09-02T11:22:59.932Z,25.87
2022-09-02T11:25:37.441Z,26.09
2022-09-02T11:28:23.279Z,25.81
2022-09-02T11:30:56.197Z,26.40
2022-09-02T11:33:29.743Z,25.84
2022-09-02T11:35:58.875Z,26.13
2022-09-02T11:39:12.372Z,26.38
2022-09-02T11:42:05.157Z,26.24
2022-09-02T11:45:25.781Z,26.44
2022-09-02T11:48:34.391Z,27.01
2022-09-02T11:53:56.139Z,26.86
2022-09-02T11:56:29.037Z,27.00
2022-09-02T11:58:56.868Z,27.42
2022-09-02T12:01:31.715Z,27.29
2022-09-02T12:07:10.024Z,27.11
2022-09-02T12:09:51.369Z,27.34
2022-09-02T12:12:37.379Z,26.87
2022-09-02T12:15:05.546Z,27.46
2022-09-02T12:17:44.560Z,26.83
2022-09-02T12:20:38.756Z,27.02
2022-09-02T12:23:08.225Z,26.80
2022-09-02T12:25:38.646Z,26.80
2022-09-02T12:28:26.264Z,26.98
2022-09-02T12:31:07.723Z,26.80
2022-09-02T12:33:38.108Z,26.42
2022-09-02T12:36:07.487Z,26.62
2022-09-02T12:38:40.246Z,26.66
2022-09-02T12:41:34.535Z,27.23
2022-09-02T12:44:54.027Z,27.27
2022-09-02T12:47:41.012Z,26.88
2022-09-02T12:50:33.300Z,26.87
2022-09-02T12:53:29.896Z,26.52
2022-09-02T12:56:01.514Z,26.95
2022-09-02T12:58:52.580Z,26.76
2022-09-02T13:01:30.848Z,26.76
2022-09-02T13:04:17.129Z,26.56
2022-09-02T13:07:07.260Z,26.41
2022-09-02T13:10:00.988Z,26.22
2022-09-02T13:12:41.148Z,26.52
2022-09-02T13:15:24.248Z,26.58
2022-09-02T13:18:13.419Z,26.97
2022-09-02T13:20:56.752Z,26.96
2022-09-02T13:24:03.067Z,26.95
2022-09-02T13:26:49.638Z,26.53
2022-09-02T13:29:41.577Z,26.40
2022-09-02T13:32:22.206Z,26.96
2022-09-02T13:34:51.482Z,26.84
2022-09-02T13:37:36.803Z,26.86
2022-09-02T13:40:20.077Z,26.52
2022-09-02T13:42:53.504Z,26.44
2022-09-02T13:45:23.724Z,26.49
2022-09-02T13:47:57.365Z,26.41
2022-09-02T13:50:27.911Z,27.04
2022-09-02T13:55:55.798Z,26.47
2022-09-02T13:58:29.440Z,26.24
2022-09-02T14:01:02.056Z,25.90
2022-09-02T14:03:32.949Z,25.92
2022-09-02T14:06:00.981Z,25.97
2022-09-02T14:08:30.716Z,25.78
2022-09-02T14:10:58.521Z,25.38
2022-09-02T14:13:27.206Z,25.65
2022-09-02T14:15:55.381Z,25.57
2022-09-02T14:18:25.000Z,25.90
2022-09-02T14:21:04.238Z,25.89
2022-09-02T14:23:36.013Z,25.44
2022-09-02T14:26:04.468Z,25.43
2022-09-02T14:28:33.898Z,25.13
2022-09-02T14:31:07.074Z,25.26
2022-09-02T14:33:47.350Z,25.44
2022-09-02T14:36:23.880Z,25.05
2022-09-02T14:38:52.667Z,25.56
2022-09-02T14:41:27.437Z,25.22
2022-09-02T14:43:59.876Z,25.45
2022-09-02T14:46:36.753Z,25.50
2022-09-02T14:49:09.611Z,25.83
2022-09-02T14:51:45.778Z,25.38
2022-09-02T14:54:40.140Z,25.58
2022-09-02T14:57:28.492Z,25.74
2022-09-02T15:00:21.432Z,25.46
2022-09-02T15:02:56.316Z,25.27
2022-09-02T15:05:24.646Z,25.72
2022-09-02T15:07:52.454Z,25.70
2022-09-02T15:10:20.473Z,25.65
2022-09-02T15:12:50.660Z,25.71
2022-09-02T15:15:18.265Z,25.76
2022-09-02T15:17:45.698Z,25.70
2022-09-02T15:20:13.391Z,25.78
2022-09-02T15:22:40.779Z,25.91
2022-09-02T15:25:08.727Z,25.88
2022-09-02T15:27:37.101Z,25.51
2022-09-02T15:30:06.069Z,26.08
2022-09-02T15:32:33.657Z,26.23
2022-09-02T15:35:01.394Z,25.60
2022-09-02T15:37:29.017Z,26.02
2022-09-02T15:39:56.694Z,26.15
2022-09-02T15:42:24.509Z,25.48
2022-09-02T15:44:51.954Z,26.06
2022-09-02T15:47:21.359Z,25.92
2022-09-02T15:49:49.124Z,26.16
2022-09-02T15:52:16.567Z,26.11
2022-09-02T15:54:43.998Z,26.12
2022-09-02T15:57:11.688Z,26.22
2022-09-02T15:59:39.166Z,25.66
2022-09-02T16:02:07.013Z,25.53
2022-09-02T16:04:34.762Z,25.44
2022-09-02T16:07:02.941Z,25.20
2022-09-02T16:09:30.410Z,25.31
2022-09-02T16:11:58.116Z,25.06
2022-09-02T16:14:25.979Z,24.81
2022-09-02T16:16:54.951Z,24.75
2022-09-02T16:19:24.676Z,24.54
2022-09-02T16:21:52.906Z,24.57
2022-09-02T16:24:21.659Z,24.36
2022-09-02T16:26:50.706Z,24.18
2022-09-02T16:29:19.505Z,24.13
2022-09-02T16:32:14.050Z,24.06
2022-09-02T16:34:36.076Z,23.99
2022-09-02T16:37:03.521Z,23.70
2022-09-02T16:39:30.979Z,23.46
2022-09-02T16:42:04.147Z,23.50
2022-09-02T16:44:33.933Z,23.48
2022-09-02T16:47:01.789Z,23.54
2022-09-02T16:49:29.176Z,23.49
2022-09-02T16:51:58.122Z,23.46
2022-09-02T16:54:31.558Z,23.45
2022-09-02T16:57:01.175Z,23.29
2022-09-02T16:59:31.484Z,23.05
2022-09-02T17:01:59.217Z,23.41
2022-09-02T17:04:26.772Z,23.33
2022-09-02T17:06:54.545Z,23.34
2022-09-02T17:09:22.221Z,23.06
2022-09-02T17:11:49.649Z,22.96
2022-09-02T17:14:17.908Z,22.41
2022-09-02T17:16:47.919Z,22.90
2022-09-02T17:19:22.189Z,23.05
2022-09-02T17:21:52.648Z,22.54
2022-09-02T17:24:25.433Z,22.55
2022-09-02T17:26:55.857Z,22.46
2022-09-02T17:29:47.937Z,22.68
2022-09-02T17:32:13.126Z,22.45
2022-09-02T17:34:41.119Z,22.60
2022-09-02T17:37:08.632Z,22.70
2022-09-02T17:39:36.627Z,22.16
2022-09-02T17:42:05.338Z,22.18
2022-09-02T17:44:38.719Z,21.94
2022-09-02T17:47:08.403Z,22.11
2022-09-02T17:49:36.860Z,22.17
2022-09-02T17:52:05.515Z,22.06
2022-09-02T17:54:34.481Z,21.79
2022-09-02T17:57:23.488Z,21.63
2022-09-02T18:00:17.505Z,22.13
2022-09-02T18:03:03.825Z,21.70
2022-09-02T18:05:36.842Z,21.73
2022-09-02T18:08:26.037Z,21.72
2022-09-02T18:10:58.068Z,21.40
2022-09-02T18:13:47.626Z,21.37
2022-09-02T18:16:30.603Z,21.47
2022-09-02T18:19:07.100Z,21.45
2022-09-02T18:22:05.082Z,21.58
2022-09-02T18:24:55.559Z,21.30
2022-09-02T18:27:41.771Z,21.50
2022-09-02T18:30:13.794Z,21.52
2022-09-02T18:33:20.253Z,21.57
2022-09-02T18:36:28.747Z,21.70
2022-09-02T18:39:21.278Z,21.56
2022-09-02T18:42:01.271Z,21.21
2022-09-02T18:44:40.192Z,20.92
2022-09-02T18:47:32.684Z,21.04
2022-09-02T18:50:04.677Z,20.41
2022-09-02T18:52:32.677Z,20.08
2022-09-02T18:55:00.005Z,20.06
2022-09-02T18:57:33.536Z,20.14
2022-09-02T19:00:10.918Z,20.50
2022-09-02T19:02:51.488Z,20.88
2022-09-02T19:05:22.368Z,20.95
2022-09-02T19:08:19.117Z,20.96
2022-09-02T19:10:47.049Z,21.14
2022-09-02T19:13:15.250Z,21.24
2022-09-02T19:15:42.904Z,21.20
2022-09-02T19:18:11.904Z,20.74
2022-09-02T19:20:39.726Z,20.91
2022-09-02T19:23:08.294Z,20.90
2022-09-02T19:25:41.686Z,21.08
2022-09-02T19:28:10.202Z,20.87
2022-09-02T19:30:40.454Z,21.10
2022-09-02T19:33:09.763Z,20.83
2022-09-02T19:35:38.412Z,20.89
2022-09-02T19:38:06.600Z,20.77
2022-09-02T19:40:34.134Z,20.73
2022-09-02T19:43:05.793Z,20.85
2022-09-02T19:45:37.722Z,20.81
2022-09-02T19:48:17.006Z,20.86
2022-09-02T19:50:46.544Z,20.66
2022-09-02T19:53:27.975Z,20.74
2022-09-02T19:56:06.766Z,20.25
2022-09-02T19:58:35.615Z,20.50
2022-09-02T20:01:05.455Z,20.57
2022-09-02T20:03:34.080Z,20.46
2022-09-02T20:06:01.566Z,20.52
2022-09-02T20:08:31.076Z,20.36
2022-09-02T20:11:01.474Z,20.53
2022-09-02T20:13:30.136Z,20.39
2022-09-02T20:15:57.612Z,20.30
2022-09-02T20:18:26.926Z,20.06
2022-09-02T20:20:57.478Z,19.18
2022-09-02T20:23:26.722Z,19.41
2022-09-02T20:26:12.613Z,19.54
2022-09-02T20:29:02.808Z,19.72
2022-09-02T20:31:39.362Z,19.27
2022-09-02T20:34:36.779Z,19.43
2022-09-02T20:37:16.147Z,18.65
2022-09-02T20:40:12.199Z,18.26
2022-09-02T20:42:58.523Z,18.33
2022-09-02T20:45:38.649Z,17.74
2022-09-02T20:48:19.428Z,17.48
2022-09-02T20:51:01.778Z,17.49
2022-09-02T20:53:32.355Z,17.24
2022-09-02T20:56:18.915Z,17.22
2022-09-02T20:59:01.326Z,16.93
2022-09-02T21:01:35.740Z,17.16
2022-09-02T21:04:24.556Z,16.86
2022-09-02T21:06:57.856Z,17.83
2022-09-02T21:09:42.972Z,17.19
2022-09-02T21:12:19.612Z,17.18
2022-09-02T21:14:49.157Z,18.13
2022-09-02T21:17:21.614Z,18.45
2022-09-02T21:19:55.175Z,17.85
2022-09-02T21:22:30.896Z,16.50
2022-09-02T21:25:25.839Z,16.49
2022-09-02T21:28:09.683Z,16.11
2022-09-02T21:30:40.408Z,16.06
2022-09-02T21:33:14.157Z,15.65
2022-09-02T21:35:48.014Z,16.26
2022-09-02T21:38:20.882Z,15.67
2022-09-02T21:40:54.380Z,15.65
2022-09-02T21:43:34.851Z,15.55
2022-09-02T21:46:40.594Z,15.28
2022-09-02T21:49:33.836Z,15.49
2022-09-02T21:52:30.602Z,16.12
2022-09-02T21:55:07.002Z,15.95
2022-09-02T21:57:53.816Z,15.71
2022-09-02T22:00:23.314Z,15.75
2022-09-02T22:03:03.902Z,15.68
2022-09-02T22:05:50.345Z,15.49
2022-09-02T22:08:29.743Z,15.39
2022-09-02T22:11:14.083Z,15.50
2022-09-02T22:13:42.245Z,15.28
2022-09-02T22:16:31.066Z,15.31
2022-09-02T22:19:02.269Z,15.64
2022-09-02T22:21:38.160Z,15.11
2022-09-02T22:24:06.839Z,15.34
2022-09-02T22:26:39.606Z,15.29
2022-09-02T22:29:17.784Z,14.89
2022-09-02T22:31:45.879Z,15.06
2022-09-02T22:34:16.151Z,14.88
2022-09-02T22:37:07.943Z,14.94
2022-09-02T22:39:39.891Z,15.07
2022-09-02T22:42:21.384Z,15.25
2022-09-02T22:45:18.554Z,15.19
2022-09-02T22:48:08.998Z,14.74
2022-09-02T22:50:58.361Z,14.93
2022-09-02T22:53:28.845Z,14.79
2022-09-02T22:55:59.398Z,15.03
2022-09-02T22:59:11.039Z,14.60
2022-09-02T23:01:45.243Z,14.40
2022-09-02T23:04:21.608Z,14.65
2022-09-02T23:06:52.551Z,14.66
2022-09-02T23:09:20.195Z,14.65
2022-09-02T23:11:53.361Z,14.60
2022-09-02T23:14:44.564Z,14.52
2022-09-02T23:17:33.642Z,14.77
2022-09-02T23:20:12.680Z,14.69
2022-09-02T23:22:49.489Z,14.83
2022-09-02T23:25:40.956Z,14.29
2022-09-02T23:28:16.775Z,13.87
2022-09-02T23:31:19.597Z,13.81
2022-09-02T23:33:51.316Z,14.01
2022-09-02T23:36:35.121Z,13.88
2022-09-02T23:39:18.834Z,13.94
2022-09-02T23:41:47.867Z,14.18
2022-09-02T23:44:16.557Z,14.02
2022-09-02T23:46:56.446Z,13.93
2022-09-02T23:49:49.241Z,14.06
2022-09-02T23:52:56.311Z,14.52
2022-09-02T23:55:38.277Z,14.39
2022-09-02T23:58:33.753Z,14.20
